Time;durP1;ratioP1;P1;durP2;ratioP2;P2;SDS_P1;SDS_P2;PMS_P1;PMS_P2;Temp;Humidity;BMP_temperature;BMP_pressure;BME280_temperature;BME280_humidity;BME280_pressure;Samples;Min_cycle;Max_cycle;Signal;HPM_P1;HPM_P2
2022/06/25 00:02:19;;;;;;;3.92;3.10;;;20.40;83.90;;;;;;5026887;28;20036;-58
2022/06/25 00:07:29;;;;;;;3.00;2.70;;;20.40;84.00;;;;;;5030151;28;22439;-59
2022/06/25 00:09:55;;;;;;;3.72;3.15;;;20.40;83.90;;;;;;5031282;28;20069;-58
2022/06/25 00:12:32;;;;;;;3.25;2.95;;;20.40;83.90;;;;;;5034150;28;20481;-59
2022/06/25 00:15:00;;;;;;;3.40;3.10;;;20.40;84.20;;;;;;5035745;28;20020;-59
2022/06/25 00:17:26;;;;;;;3.20;2.90;;;20.40;84.20;;;;;;5020622;28;20033;-59
2022/06/25 00:19:51;;;;;;;3.60;3.05;;;20.40;84.30;;;;;;5033188;28;20485;-58
2022/06/25 00:22:17;;;;;;;3.50;2.83;;;20.40;84.20;;;;;;5031591;28;20116;-59
2022/06/25 00:24:43;;;;;;;3.55;3.00;;;20.30;83.90;;;;;;5036341;28;20057;-58
2022/06/25 00:27:08;;;;;;;4.45;3.28;;;20.40;84.00;;;;;;5030387;28;20033;-58
2022/06/25 00:29:34;;;;;;;4.10;3.28;;;20.40;84.10;;;;;;5030985;28;20029;-59
2022/06/25 00:31:59;;;;;;;3.53;3.08;;;20.40;84.20;;;;;;5025484;28;20109;-58
2022/06/25 00:34:26;;;;;;;3.70;3.08;;;20.40;84.30;;;;;;5033278;28;20032;-59
2022/06/25 00:36:52;;;;;;;3.85;3.20;;;20.40;84.30;;;;;;5031700;28;20040;-58
2022/06/25 00:39:18;;;;;;;3.17;2.85;;;20.30;84.20;;;;;;5027007;28;20030;-59
2022/06/25 00:41:43;;;;;;;3.80;3.25;;;20.30;84.20;;;;;;5025748;28;20033;-59
2022/06/25 00:44:10;;;;;;;3.60;3.10;;;20.30;84.30;;;;;;5032410;28;20037;-59
2022/06/25 00:46:36;;;;;;;3.13;2.83;;;20.30;84.30;;;;;;5031333;28;20033;-59
2022/06/25 00:49:02;;;;;;;3.53;3.03;;;20.30;84.30;;;;;;5030696;28;20048;-59
2022/06/25 00:51:32;;;;;;;4.38;3.17;;;20.30;84.40;;;;;;5031041;28;20041;-58
2022/06/25 00:54:04;;;;;;;3.00;2.70;;;20.30;84.40;;;;;;5023722;28;20431;-59
2022/06/25 00:56:35;;;;;;;3.63;3.08;;;20.30;84.60;;;;;;5018945;28;20025;-59
2022/06/25 00:59:04;;;;;;;3.63;2.92;;;20.30;84.50;;;;;;5032966;28;20065;-59
2022/06/25 01:01:33;;;;;;;3.92;3.38;;;20.30;84.80;;;;;;5030644;28;20373;-59
2022/06/25 01:03:58;;;;;;;3.63;3.13;;;20.30;84.90;;;;;;5028074;28;20028;-58
2022/06/25 01:06:24;;;;;;;3.47;3.10;;;20.30;85.00;;;;;;5020142;28;20030;-59
2022/06/25 01:08:50;;;;;;;3.55;3.13;;;20.30;84.90;;;;;;5036842;28;20017;-59
2022/06/25 01:11:16;;;;;;;3.10;2.80;;;20.30;84.90;;;;;;5036676;28;20032;-58
2022/06/25 01:13:42;;;;;;;3.60;3.00;;;20.30;84.90;;;;;;5025071;28;20030;-59
2022/06/25 01:16:07;;;;;;;3.25;2.83;;;20.20;84.90;;;;;;5017547;28;20033;-59
2022/06/25 01:18:33;;;;;;;3.17;2.70;;;20.20;85.00;;;;;;5026403;28;20032;-59
2022/06/25 01:21:00;;;;;;;4.13;3.42;;;20.20;85.10;;;;;;5026293;28;20109;-58
2022/06/25 01:23:26;;;;;;;4.07;3.13;;;20.20;85.00;;;;;;5022528;28;20109;-58
2022/06/25 01:25:52;;;;;;;3.65;3.10;;;20.20;85.10;;;;;;5026790;28;20121;-59
2022/06/25 01:28:18;;;;;;;4.05;3.55;;;20.20;85.20;;;;;;5020182;28;20040;-59
2022/06/25 01:30:43;;;;;;;4.22;3.30;;;20.20;85.30;;;;;;5032955;28;20041;-59
2022/06/25 01:33:09;;;;;;;4.35;3.33;;;20.20;85.50;;;;;;5029358;28;20486;-59
2022/06/25 01:35:35;;;;;;;3.40;3.10;;;20.20;85.50;;;;;;5019521;28;20089;-59
2022/06/25 01:38:02;;;;;;;3.88;3.17;;;20.20;85.50;;;;;;5030832;28;20029;-58
2022/06/25 01:40:28;;;;;;;3.25;2.78;;;20.20;85.60;;;;;;5032689;28;20021;-59
2022/06/25 01:43:00;;;;;;;3.75;3.03;;;20.20;85.50;;;;;;5040360;28;20100;-59
2022/06/25 01:45:32;;;;;;;4.40;3.05;;;20.30;85.60;;;;;;5031027;28;20441;-59
2022/06/25 01:47:58;;;;;;;3.53;3.00;;;20.20;85.70;;;;;;5029701;28;20057;-59
2022/06/25 01:50:25;;;;;;;3.33;3.00;;;20.20;85.50;;;;;;5030490;28;20025;-59
2022/06/25 01:52:51;;;;;;;2.83;2.53;;;20.20;85.50;;;;;;5021826;28;20087;-59
2022/06/25 01:55:18;;;;;;;3.67;3.28;;;20.20;85.50;;;;;;5025488;28;20773;-59
2022/06/25 01:57:44;;;;;;;5.05;3.47;;;20.20;85.50;;;;;;5031291;28;20362;-59
2022/06/25 02:00:14;;;;;;;3.40;3.10;;;20.20;85.60;;;;;;5029920;28;20029;-58
2022/06/25 02:02:44;;;;;;;3.40;3.00;;;20.10;85.80;;;;;;5028255;28;20075;-58
2022/06/25 02:05:12;;;;;;;3.38;3.08;;;20.10;85.70;;;;;;5026538;28;20474;-59
2022/06/25 02:07:37;;;;;;;3.70;3.15;;;20.10;85.70;;;;;;5030845;28;20386;-59
2022/06/25 02:10:04;;;;;;;3.75;3.03;;;20.10;85.70;;;;;;5029156;28;20034;-59
2022/06/25 02:12:29;;;;;;;4.45;3.28;;;20.10;85.80;;;;;;5027776;28;20106;-59
2022/06/25 02:14:55;;;;;;;3.85;3.15;;;20.10;85.90;;;;;;5026308;28;20029;-59
2022/06/25 02:17:21;;;;;;;3.00;2.70;;;20.10;85.80;;;;;;5029363;28;20367;-59
2022/06/25 02:19:46;;;;;;;3.90;3.08;;;20.10;85.80;;;;;;5016127;28;20393;-59
2022/06/25 02:22:14;;;;;;;4.18;3.38;;;20.10;86.00;;;;;;5027180;28;20022;-59
2022/06/25 02:24:43;;;;;;;3.90;3.42;;;20.10;86.00;;;;;;5033080;28;20057;-59
2022/06/25 02:27:09;;;;;;;3.67;3.30;;;20.10;86.00;;;;;;5021764;28;20036;-59
2022/06/25 02:29:35;;;;;;;3.70;3.30;;;20.10;86.30;;;;;;5024093;28;20025;-59
2022/06/25 02:32:01;;;;;;;3.40;3.10;;;20.10;86.40;;;;;;5026823;28;20676;-58
2022/06/25 02:34:27;;;;;;;3.03;2.72;;;20.10;86.50;;;;;;5028715;28;20101;-59
2022/06/25 02:36:53;;;;;;;3.00;2.70;;;20.10;86.30;;;;;;5028902;28;20033;-59
2022/06/25 02:39:19;;;;;;;4.00;3.55;;;20.10;86.20;;;;;;5039971;28;20036;-59
2022/06/25 02:41:45;;;;;;;3.53;3.15;;;20.10;86.30;;;;;;5026315;28;20398;-58
2022/06/25 02:44:11;;;;;;;3.92;3.30;;;20.10;86.30;;;;;;5029684;28;20060;-59
2022/06/25 02:46:36;;;;;;;3.80;3.25;;;20.10;86.30;;;;;;5030444;28;20088;-59
2022/06/25 02:49:03;;;;;;;4.60;3.40;;;20.10;86.20;;;;;;5026261;28;20043;-59
2022/06/25 02:51:28;;;;;;;4.70;3.50;;;20.20;86.10;;;;;;5024838;28;20493;-59
2022/06/25 02:53:55;;;;;;;4.93;3.38;;;20.20;86.00;;;;;;5021871;28;20092;-59
2022/06/25 02:59:06;;;;;;;4.57;3.55;;;20.20;85.90;;;;;;5032395;28;20037;-59
2022/06/25 03:01:32;;;;;;;4.00;3.30;;;20.20;85.80;;;;;;5023031;28;20501;-59
2022/06/25 03:03:59;;;;;;;5.10;3.33;;;20.20;85.90;;;;;;5030316;28;20543;-59
2022/06/25 03:06:25;;;;;;;4.88;3.78;;;20.30;85.90;;;;;;5023775;28;20057;-59
2022/06/25 03:08:51;;;;;;;4.15;3.35;;;20.20;85.60;;;;;;5015544;28;20032;-58
2022/06/25 03:11:17;;;;;;;4.00;3.30;;;20.30;85.70;;;;;;5023774;28;20386;-59
2022/06/25 03:13:43;;;;;;;3.92;3.30;;;20.30;85.60;;;;;;5025478;28;20026;-59
2022/06/25 03:16:09;;;;;;;3.70;3.13;;;20.30;85.30;;;;;;5033477;28;20040;-58
2022/06/25 03:18:36;;;;;;;4.13;3.47;;;20.30;85.10;;;;;;5022549;28;20072;-59
2022/06/25 03:21:01;;;;;;;3.40;3.05;;;20.30;84.90;;;;;;5032009;28;20041;-59
2022/06/25 03:23:27;;;;;;;4.40;3.42;;;20.40;85.00;;;;;;5034793;28;20052;-58
2022/06/25 03:25:53;;;;;;;3.60;3.25;;;20.40;85.20;;;;;;5036694;28;20035;-58
2022/06/25 03:28:19;;;;;;;3.95;3.35;;;20.40;85.10;;;;;;5040182;28;20159;-58
2022/06/25 03:30:45;;;;;;;4.55;3.58;;;20.50;85.20;;;;;;5025053;28;20539;-58
2022/06/25 03:33:12;;;;;;;4.20;3.60;;;20.60;85.00;;;;;;5034587;28;20064;-58
2022/06/25 03:35:37;;;;;;;3.72;3.33;;;20.70;85.20;;;;;;5035427;28;20105;-58
2022/06/25 03:38:03;;;;;;;4.90;3.38;;;20.90;85.90;;;;;;5029740;28;20160;-58
2022/06/25 03:40:29;;;;;;;4.82;3.33;;;21.10;86.90;;;;;;5036416;28;20044;-58
2022/06/25 03:42:54;;;;;;;4.00;3.00;;;21.60;87.60;;;;;;5035214;28;20030;-58
2022/06/25 03:45:20;;;;;;;3.65;3.10;;;22.20;86.00;;;;;;5029690;28;20026;-58
2022/06/25 03:47:50;;;;;;;3.30;2.90;;;22.70;83.10;;;;;;5037232;28;20033;-57
2022/06/25 03:50:16;;;;;;;3.85;2.90;;;23.10;82.20;;;;;;5033705;28;20033;-58
2022/06/25 03:52:43;;;;;;;3.00;2.70;;;23.60;81.00;;;;;;5031209;28;20048;-57
2022/06/25 03:55:08;;;;;;;3.17;2.88;;;24.30;79.40;;;;;;5029894;28;20026;-58
2022/06/25 03:57:35;;;;;;;3.60;2.97;;;25.00;78.00;;;;;;5043931;28;20041;-58
2022/06/25 04:00:03;;;;;;;3.28;2.75;;;25.70;76.10;;;;;;5030094;28;20474;-58
2022/06/25 04:02:29;;;;;;;3.97;3.15;;;26.30;74.20;;;;;;5031077;28;20033;-58
2022/06/25 04:04:54;;;;;;;3.08;2.78;;;26.80;72.10;;;;;;5033464;28;20041;-58
2022/06/25 04:07:20;;;;;;;3.38;3.05;;;27.10;70.40;;;;;;5036108;28;20578;-58
2022/06/25 04:09:46;;;;;;;3.53;3.10;;;27.10;69.10;;;;;;5031951;28;20506;-58
2022/06/25 04:12:12;;;;;;;3.63;2.83;;;27.10;69.00;;;;;;5032328;28;20025;-58
2022/06/25 04:14:38;;;;;;;3.45;2.88;;;27.20;69.30;;;;;;5044860;28;20460;-58
2022/06/25 04:17:04;;;;;;;2.72;2.53;;;27.50;69.30;;;;;;5031421;28;20025;-58
2022/06/25 04:19:30;;;;;;;3.83;2.80;;;28.20;68.60;;;;;;5032672;28;20378;-58
2022/06/25 04:21:55;;;;;;;3.10;2.80;;;28.80;67.50;;;;;;5037105;28;20090;-58
2022/06/25 04:24:21;;;;;;;3.70;2.70;;;29.40;66.30;;;;;;5027990;28;20494;-58
2022/06/25 04:26:47;;;;;;;3.10;2.63;;;30.10;65.20;;;;;;5029828;28;20029;-58
2022/06/25 04:29:12;;;;;;;3.00;2.33;;;30.50;63.80;;;;;;5033864;28;20603;-58
2022/06/25 04:31:39;;;;;;;3.42;2.72;;;30.80;62.80;;;;;;5033006;28;20155;-58
2022/06/25 04:34:05;;;;;;;2.97;2.58;;;31.20;62.00;;;;;;5033378;28;20030;-58
2022/06/25 04:36:31;;;;;;;3.65;2.47;;;31.50;61.10;;;;;;5028253;28;20095;-58
2022/06/25 04:38:57;;;;;;;2.55;2.20;;;31.90;60.30;;;;;;5020408;28;20065;-58
2022/06/25 04:41:23;;;;;;;2.42;2.22;;;32.40;59.80;;;;;;5029687;28;20049;-58
2022/06/25 04:43:49;;;;;;;2.22;2.08;;;32.80;59.40;;;;;;5036853;28;20023;-58
2022/06/25 04:46:14;;;;;;;2.83;2.50;;;33.20;58.80;;;;;;5023285;28;20033;-58
2022/06/25 04:48:40;;;;;;;4.60;2.40;;;33.70;58.00;;;;;;5028704;28;20029;-57
2022/06/25 04:51:06;;;;;;;3.47;2.90;;;34.10;57.10;;;;;;5031551;28;20553;-58
2022/06/25 04:53:32;;;;;;;2.70;2.40;;;34.50;56.70;;;;;;5025979;28;20025;-58
2022/06/25 04:55:57;;;;;;;2.70;1.90;;;34.80;55.30;;;;;;5026714;28;20026;-58
2022/06/25 04:58:23;;;;;;;4.63;2.60;;;35.10;54.70;;;;;;5022288;28;20506;-58
2022/06/25 05:00:49;;;;;;;2.33;2.13;;;35.40;54.30;;;;;;5021333;28;20021;-58
2022/06/25 05:03:15;;;;;;;2.45;2.20;;;35.70;53.60;;;;;;5035385;28;20502;-58
2022/06/25 05:05:41;;;;;;;3.20;2.60;;;36.00;52.90;;;;;;5024652;28;20022;-58
2022/06/25 05:08:07;;;;;;;2.35;2.15;;;36.20;52.10;;;;;;5030158;28;20033;-58
2022/06/25 05:10:32;;;;;;;2.80;2.40;;;36.30;51.50;;;;;;5028985;28;20021;-58
2022/06/25 05:13:13;;;;;;;2.45;2.25;;;36.30;50.80;;;;;;5034335;28;20029;-58
2022/06/25 05:15:43;;;;;;;2.72;2.50;;;36.00;50.50;;;;;;5023214;28;20025;-57
2022/06/25 05:18:10;;;;;;;2.42;2.20;;;35.30;50.30;;;;;;5022103;28;20392;-57
2022/06/25 05:20:40;;;;;;;2.90;2.53;;;34.50;50.70;;;;;;5024867;28;20661;-58
2022/06/25 05:23:06;;;;;;;2.53;2.22;;;33.70;51.20;;;;;;5030354;28;20402;-57
2022/06/25 05:25:32;;;;;;;2.30;2.10;;;32.80;51.80;;;;;;5024519;28;20034;-58
2022/06/25 05:27:58;;;;;;;2.75;2.10;;;32.10;52.60;;;;;;5031317;28;20037;-58
2022/06/25 05:30:25;;;;;;;4.30;2.60;;;31.30;53.10;;;;;;5017137;28;20037;-57
2022/06/25 05:32:50;;;;;;;4.30;2.70;;;30.70;53.60;;;;;;5025922;28;20167;-58
2022/06/25 05:35:16;;;;;;;3.17;2.50;;;30.00;54.20;;;;;;5023677;28;20022;-58
2022/06/25 05:37:42;;;;;;;3.50;2.80;;;29.40;54.90;;;;;;5021767;28;20033;-57
2022/06/25 05:40:09;;;;;;;2.88;2.45;;;28.80;55.50;;;;;;5019997;28;20460;-58
2022/06/25 05:42:35;;;;;;;2.72;2.42;;;28.30;56.10;;;;;;5024900;28;20037;-58
2022/06/25 05:45:01;;;;;;;3.53;3.00;;;27.90;56.70;;;;;;5026877;28;20037;-57
2022/06/25 05:47:26;;;;;;;4.07;3.28;;;27.50;57.30;;;;;;5023006;28;20535;-58
2022/06/25 05:49:52;;;;;;;3.20;2.72;;;27.10;58.00;;;;;;5020837;28;20030;-58
2022/06/25 05:52:17;;;;;;;3.47;2.90;;;26.90;58.50;;;;;;5015719;28;20045;-58
2022/06/25 05:54:43;;;;;;;2.88;2.67;;;26.60;58.90;;;;;;5012413;28;20398;-58
2022/06/25 05:57:09;;;;;;;3.10;2.80;;;26.40;59.40;;;;;;5007214;28;20033;-58
2022/06/25 05:59:34;;;;;;;3.35;2.88;;;26.20;59.70;;;;;;5011621;28;20449;-58
2022/06/25 06:02:00;;;;;;;3.65;3.00;;;26.00;60.00;;;;;;5012558;28;20029;-58
2022/06/25 06:04:26;;;;;;;3.95;2.97;;;25.90;60.50;;;;;;5017269;28;20037;-57
2022/06/25 06:06:52;;;;;;;3.75;2.65;;;25.80;61.00;;;;;;5012163;28;20042;-57
2022/06/25 06:09:18;;;;;;;3.35;2.90;;;25.80;61.20;;;;;;5015557;28;20603;-58
2022/06/25 06:11:43;;;;;;;4.00;3.03;;;25.80;61.40;;;;;;5018236;28;20083;-58
2022/06/25 06:14:09;;;;;;;3.25;2.92;;;25.80;61.60;;;;;;5020297;28;20022;-58
2022/06/25 06:16:35;;;;;;;3.13;2.70;;;25.70;61.60;;;;;;5023051;28;20646;-58
2022/06/25 06:19:01;;;;;;;3.42;2.85;;;25.70;61.70;;;;;;5013034;28;20029;-58
2022/06/25 06:21:27;;;;;;;3.65;2.97;;;25.60;62.10;;;;;;5021928;28;20084;-58
2022/06/25 06:23:52;;;;;;;3.55;2.55;;;25.50;62.60;;;;;;5018744;28;20112;-58
2022/06/25 06:26:18;;;;;;;3.38;2.80;;;25.30;62.80;;;;;;5012495;28;20046;-58
2022/06/25 06:28:43;;;;;;;3.00;2.80;;;25.20;63.00;;;;;;5029132;28;20014;-58
2022/06/25 06:31:10;;;;;;;3.25;2.75;;;25.10;63.60;;;;;;5024842;28;20022;-58
2022/06/25 06:33:36;;;;;;;3.20;2.90;;;24.90;63.90;;;;;;5018050;28;20025;-58
2022/06/25 06:36:02;;;;;;;4.20;3.13;;;24.80;64.20;;;;;;5034442;28;20029;-58
2022/06/25 06:38:27;;;;;;;3.45;2.80;;;24.70;64.50;;;;;;5032782;28;20105;-58
2022/06/25 06:40:53;;;;;;;4.78;2.80;;;24.70;64.80;;;;;;5027570;28;20105;-58
2022/06/25 06:43:19;;;;;;;2.75;2.45;;;24.60;65.10;;;;;;5028978;28;20022;-58
2022/06/25 06:45:44;;;;;;;3.42;3.03;;;24.50;65.50;;;;;;5028941;28;20029;-57
2022/06/25 06:48:10;;;;;;;2.65;2.20;;;24.40;65.80;;;;;;5028835;28;20083;-58
2022/06/25 06:50:36;;;;;;;3.03;2.65;;;24.30;66.20;;;;;;5030517;28;20021;-58
2022/06/25 06:53:01;;;;;;;2.92;2.28;;;24.20;66.40;;;;;;5028738;28;20050;-58
2022/06/25 06:55:27;;;;;;;3.65;2.85;;;24.20;66.60;;;;;;5033217;28;20252;-58
2022/06/25 06:57:53;;;;;;;2.97;2.45;;;24.10;67.00;;;;;;5029855;28;20041;-58
2022/06/25 07:00:18;;;;;;;2.78;2.38;;;24.10;67.40;;;;;;5035358;28;20033;-57
2022/06/25 07:02:44;;;;;;;3.13;2.63;;;24.00;67.70;;;;;;5025894;28;20029;-58
2022/06/25 07:05:10;;;;;;;2.97;2.70;;;24.00;67.90;;;;;;5034421;28;20371;-57
2022/06/25 07:07:35;;;;;;;2.97;2.45;;;24.00;68.10;;;;;;5022329;28;20033;-58
2022/06/25 07:10:01;;;;;;;2.90;2.60;;;24.00;68.30;;;;;;5019804;28;20063;-58
2022/06/25 07:12:27;;;;;;;3.45;2.80;;;24.00;68.30;;;;;;5033369;28;20021;-57
2022/06/25 07:14:52;;;;;;;3.88;3.28;;;24.10;68.40;;;;;;5031976;28;20518;-57
2022/06/25 07:17:18;;;;;;;3.03;2.72;;;24.10;68.40;;;;;;5022255;28;20037;-58
2022/06/25 07:19:44;;;;;;;3.65;2.90;;;24.20;68.30;;;;;;5027877;28;20034;-58
2022/06/25 07:22:09;;;;;;;3.08;2.78;;;24.20;68.20;;;;;;5032298;28;20087;-57
2022/06/25 07:24:35;;;;;;;4.82;3.20;;;24.20;68.00;;;;;;5029092;28;20053;-58
2022/06/25 07:27:01;;;;;;;3.20;2.85;;;24.30;68.10;;;;;;5033825;28;20236;-57
2022/06/25 07:29:26;;;;;;;4.47;3.53;;;24.40;68.20;;;;;;5038595;28;20021;-58
2022/06/25 07:31:52;;;;;;;3.25;2.88;;;24.40;68.00;;;;;;5033485;28;20376;-57
2022/06/25 07:34:18;;;;;;;3.83;3.20;;;24.40;68.00;;;;;;5030393;28;20021;-58
2022/06/25 07:36:44;;;;;;;3.53;2.85;;;24.50;68.00;;;;;;5026904;28;20057;-57
2022/06/25 07:39:09;;;;;;;4.13;3.42;;;24.50;68.00;;;;;;5028352;28;20041;-59
2022/06/25 07:41:35;;;;;;;3.25;2.95;;;24.40;68.00;;;;;;5026544;28;20032;-59
2022/06/25 07:44:02;;;;;;;3.47;2.97;;;24.40;67.90;;;;;;5029269;28;20051;-59
2022/06/25 07:46:27;;;;;;;3.75;3.20;;;24.50;68.10;;;;;;4994191;28;20088;-59
2022/06/25 07:48:53;;;;;;;3.92;2.97;;;24.50;68.00;;;;;;5026838;28;20037;-58
2022/06/25 07:54:03;;;;;;;5.25;3.47;;;24.50;67.80;;;;;;5026514;28;20040;-59
2022/06/25 07:56:29;;;;;;;4.70;3.40;;;24.40;67.90;;;;;;5030524;28;20029;-59
2022/06/25 07:58:55;;;;;;;3.63;3.10;;;24.30;68.10;;;;;;5020958;28;20037;-59
2022/06/25 08:01:20;;;;;;;4.03;3.30;;;24.30;68.40;;;;;;5026330;28;20438;-58
2022/06/25 08:03:46;;;;;;;4.07;3.13;;;24.30;68.40;;;;;;5024901;28;20033;-59
2022/06/25 08:06:12;;;;;;;3.35;3.00;;;24.30;68.20;;;;;;5026807;28;20100;-58
2022/06/25 08:08:39;;;;;;;3.83;3.00;;;24.20;68.40;;;;;;5040847;28;20026;-58
2022/06/25 08:11:05;;;;;;;4.93;3.53;;;24.20;68.50;;;;;;5036814;28;20026;-58
2022/06/25 08:13:31;;;;;;;3.40;2.97;;;24.20;68.50;;;;;;5033985;28;20018;-58
2022/06/25 08:15:56;;;;;;;3.97;3.10;;;24.20;68.60;;;;;;5027803;28;20040;-58
2022/06/25 08:18:22;;;;;;;3.58;2.88;;;24.30;68.90;;;;;;5034096;28;20029;-59
2022/06/25 08:20:49;;;;;;;3.50;3.10;;;24.30;69.00;;;;;;5034331;28;20029;-61
2022/06/25 08:23:16;;;;;;;3.97;3.40;;;24.30;68.90;;;;;;5033831;28;20035;-59
2022/06/25 08:25:41;;;;;;;3.75;3.30;;;24.40;68.90;;;;;;5041256;28;20573;-60
2022/06/25 08:28:07;;;;;;;3.38;3.08;;;24.50;68.80;;;;;;5032124;28;20097;-58
2022/06/25 08:30:34;;;;;;;3.45;3.15;;;24.50;68.70;;;;;;5025904;28;20083;-62
2022/06/25 08:32:59;;;;;;;4.32;3.13;;;24.50;68.50;;;;;;5039602;28;20025;-60
2022/06/25 08:35:25;;;;;;;3.90;2.67;;;24.50;68.50;;;;;;5030316;28;20013;-59
2022/06/25 08:37:51;;;;;;;3.50;2.85;;;24.60;68.60;;;;;;5024575;28;20033;-58
2022/06/25 08:40:20;;;;;;;3.30;2.97;;;24.60;68.40;;;;;;5026365;28;20025;-58
2022/06/25 08:42:49;;;;;;;4.07;2.92;;;24.60;68.30;;;;;;5017557;28;20033;-59
2022/06/25 08:45:18;;;;;;;3.50;2.72;;;24.60;68.50;;;;;;5014021;28;20048;-58
2022/06/25 08:47:49;;;;;;;3.67;3.03;;;24.60;69.00;;;;;;5016179;28;20038;-59
2022/06/25 08:50:16;;;;;;;2.85;2.65;;;24.70;68.60;;;;;;5014504;28;20022;-58
2022/06/25 08:52:53;;;;;;;3.58;3.00;;;24.60;68.30;;;;;;5012826;28;20033;-56
2022/06/25 08:55:32;;;;;;;3.55;3.00;;;24.60;68.40;;;;;;5019355;28;20053;-58
2022/06/25 08:58:00;;;;;;;3.40;3.10;;;24.60;68.60;;;;;;5013099;28;20033;-59
2022/06/25 09:00:26;;;;;;;3.78;3.38;;;24.60;68.60;;;;;;5010568;28;20461;-58
2022/06/25 09:02:52;;;;;;;3.60;2.83;;;24.60;68.60;;;;;;5013948;28;20037;-58
2022/06/25 09:05:25;;;;;;;4.07;3.20;;;24.60;68.70;;;;;;5016359;28;20056;-58
2022/06/25 09:07:55;;;;;;;4.47;3.67;;;24.60;68.90;;;;;;5018475;28;20056;-60
2022/06/25 09:10:25;;;;;;;3.75;3.17;;;24.60;69.10;;;;;;5014487;28;20018;-58
2022/06/25 09:12:53;;;;;;;3.75;3.30;;;24.60;69.00;;;;;;5014632;28;20726;-58
2022/06/25 09:15:21;;;;;;;3.17;2.88;;;24.60;68.90;;;;;;5025962;28;20528;-58
2022/06/25 09:17:48;;;;;;;3.20;2.88;;;24.60;69.20;;;;;;5027180;28;20036;-57
2022/06/25 09:20:14;;;;;;;3.50;2.90;;;24.60;69.30;;;;;;5024025;28;20034;-58
2022/06/25 09:22:40;;;;;;;2.78;2.50;;;24.70;69.50;;;;;;5033417;28;20026;-58
2022/06/25 09:25:06;;;;;;;3.10;2.78;;;24.70;69.10;;;;;;5016580;28;20034;-58
2022/06/25 09:27:36;;;;;;;2.45;2.30;;;24.60;68.60;;;;;;5022228;28;20033;-61
2022/06/25 09:30:14;;;;;;;3.17;2.47;;;24.60;68.60;;;;;;5021310;28;20033;-58
2022/06/25 09:32:53;;;;;;;2.33;2.10;;;24.60;68.60;;;;;;5024744;28;20638;-58
2022/06/25 09:35:33;;;;;;;2.53;2.33;;;24.60;68.40;;;;;;5026555;28;20508;-58
2022/06/25 09:38:07;;;;;;;2.55;2.25;;;24.50;68.40;;;;;;5025545;28;20091;-58
2022/06/25 09:40:34;;;;;;;2.67;2.40;;;24.50;68.40;;;;;;5030097;28;20030;-59
2022/06/25 09:43:13;;;;;;;2.65;2.45;;;24.40;68.60;;;;;;5024585;28;20041;-59
2022/06/25 09:45:41;;;;;;;2.70;2.50;;;24.30;68.70;;;;;;5029258;28;20116;-59
2022/06/25 09:48:18;;;;;;;2.53;2.30;;;24.30;68.50;;;;;;5029069;28;20548;-59
2022/06/25 09:50:45;;;;;;;2.30;2.15;;;24.30;68.30;;;;;;5030900;28;20026;-59
2022/06/25 09:53:11;;;;;;;2.85;2.55;;;24.30;68.30;;;;;;5036654;28;20409;-59
2022/06/25 09:55:40;;;;;;;2.80;2.40;;;24.30;68.20;;;;;;5030154;28;20017;-59
2022/06/25 09:58:06;;;;;;;2.50;2.30;;;24.40;68.30;;;;;;5021181;28;20045;-59
2022/06/25 10:00:33;;;;;;;2.60;2.40;;;24.40;68.40;;;;;;5029456;28;20412;-59
2022/06/25 10:02:59;;;;;;;2.50;2.30;;;24.40;68.20;;;;;;5030713;28;20687;-59
2022/06/25 10:05:46;;;;;;;2.67;2.47;;;24.50;68.30;;;;;;5030233;28;20036;-59
2022/06/25 10:08:14;;;;;;;2.78;2.28;;;24.60;68.40;;;;;;5028643;28;20037;-59
2022/06/25 10:10:43;;;;;;;2.63;2.42;;;24.60;68.50;;;;;;5032113;28;20021;-59
2022/06/25 10:13:09;;;;;;;2.63;2.35;;;24.80;68.40;;;;;;5031713;28;20073;-59
2022/06/25 10:15:35;;;;;;;2.00;1.88;;;24.90;68.40;;;;;;5024619;28;20026;-59
2022/06/25 10:18:04;;;;;;;4.07;2.38;;;25.00;68.30;;;;;;5025667;28;20038;-59
2022/06/25 10:20:31;;;;;;;2.90;2.60;;;25.00;67.90;;;;;;5022108;28;20557;-59
2022/06/25 10:22:59;;;;;;;3.95;2.38;;;25.00;67.40;;;;;;5026874;28;20116;-59
2022/06/25 10:25:26;;;;;;;3.35;2.53;;;24.90;67.10;;;;;;5031192;28;20044;-59
2022/06/25 10:28:10;;;;;;;3.25;2.60;;;24.80;67.20;;;;;;5030728;28;20039;-59
2022/06/25 10:30:59;;;;;;;3.03;2.22;;;24.70;67.20;;;;;;5028541;28;20021;-58
2022/06/25 10:33:35;;;;;;;2.55;2.30;;;24.60;67.60;;;;;;5028565;28;20044;-59
2022/06/25 10:36:04;;;;;;;2.85;2.55;;;24.60;67.70;;;;;;5025773;28;20180;-59
2022/06/25 10:38:31;;;;;;;2.50;2.30;;;24.50;67.90;;;;;;5026062;28;20456;-59
2022/06/25 10:43:54;;;;;;;2.72;2.50;;;24.60;68.30;;;;;;5029606;28;20036;-59
2022/06/25 10:46:19;;;;;;;2.40;2.20;;;24.60;68.30;;;;;;5032425;28;20222;-59
2022/06/25 10:49:02;;;;;;;2.47;2.28;;;24.50;68.30;;;;;;5021634;28;20105;-59
2022/06/25 10:51:33;;;;;;;2.58;1.98;;;24.50;68.40;;;;;;5025902;28;20033;-58
2022/06/25 10:54:01;;;;;;;3.83;2.38;;;24.50;68.50;;;;;;5032230;28;20028;-59
2022/06/25 10:56:31;;;;;;;2.65;2.30;;;24.60;68.60;;;;;;5026140;28;20026;-59
2022/06/25 10:58:58;;;;;;;;;;;24.60;68.80;;;;;;5029307;28;20026;-59
2022/06/25 11:01:27;;;;;;;2.53;2.30;;;24.60;69.00;;;;;;5022429;28;19955;-59
2022/06/25 11:03:55;;;;;;;3.70;2.97;;;24.60;68.60;;;;;;5028398;28;20029;-59
2022/06/25 11:06:32;;;;;;;2.60;2.40;;;24.60;68.80;;;;;;5020697;28;20052;-59
2022/06/25 11:09:06;;;;;;;2.75;2.40;;;24.60;68.90;;;;;;5029647;28;20033;-59
2022/06/25 11:11:34;;;;;;;2.42;2.22;;;24.60;68.90;;;;;;5026372;28;20512;-59
2022/06/25 11:14:02;;;;;;;2.38;2.10;;;24.60;69.00;;;;;;5020428;28;20021;-59
2022/06/25 11:16:28;;;;;;;6.47;4.55;;;24.60;69.00;;;;;;5024802;28;20032;-59
2022/06/25 11:18:59;;;;;;;4.60;2.90;;;24.60;69.00;;;;;;5029137;28;20108;-59
2022/06/25 11:21:27;;;;;;;;;;;24.60;69.30;;;;;;5022341;28;20025;-59
2022/06/25 11:24:07;;;;;;;2.25;2.05;;;24.50;69.30;;;;;;5028134;28;19909;-59
2022/06/25 11:29:24;;;;;;;2.72;2.05;;;24.60;69.00;;;;;;5023464;28;20025;-59
2022/06/25 11:31:52;;;;;;;2.45;2.25;;;24.60;68.60;;;;;;5027388;28;20053;-59
2022/06/25 11:34:22;;;;;;;2.63;2.17;;;24.60;68.60;;;;;;5029871;28;20026;-59
2022/06/25 11:37:06;;;;;;;2.30;2.10;;;24.60;68.70;;;;;;5028193;28;20057;-59
2022/06/25 11:39:33;;;;;;;2.17;1.98;;;24.60;68.40;;;;;;5045799;28;20040;-59
2022/06/25 11:42:00;;;;;;;3.72;2.08;;;24.60;68.20;;;;;;5037950;28;20363;-59
2022/06/25 11:44:26;;;;;;;3.35;2.22;;;24.60;68.30;;;;;;5032545;28;20506;-59
2022/06/25 11:46:53;;;;;;;2.83;2.47;;;24.60;68.20;;;;;;5030636;28;20110;-59
2022/06/25 11:49:20;;;;;;;2.80;2.50;;;24.70;68.10;;;;;;5032008;28;20033;-58
2022/06/25 11:51:51;;;;;;;2.17;2.00;;;24.70;67.70;;;;;;5033198;28;20042;-59
2022/06/25 11:54:22;;;;;;;1.98;1.88;;;24.80;67.70;;;;;;5034410;28;20033;-59
2022/06/25 11:56:48;;;;;;;;;;;24.80;67.80;;;;;;5028051;28;20386;-58
2022/06/25 11:59:15;;;;;;;2.40;2.20;;;24.80;67.90;;;;;;5034853;28;20388;-59
2022/06/25 12:01:40;;;;;;;2.40;2.20;;;24.90;68.10;;;;;;5033775;28;20469;-59
2022/06/25 12:04:06;;;;;;;2.40;2.20;;;25.00;68.00;;;;;;5025929;28;20027;-58
2022/06/25 12:06:33;;;;;;;2.45;2.25;;;25.00;67.60;;;;;;5032759;28;20033;-59
2022/06/25 12:09:00;;;;;;;2.38;2.17;;;25.10;67.50;;;;;;5022317;28;20030;-59
2022/06/25 12:11:28;;;;;;;4.15;2.40;;;25.20;67.20;;;;;;5033750;28;20473;-59
2022/06/25 12:13:55;;;;;;;2.20;2.10;;;25.20;67.10;;;;;;5026154;28;20029;-58
2022/06/25 12:16:21;;;;;;;2.53;1.85;;;25.20;67.00;;;;;;5025416;28;20030;-59
2022/06/25 12:18:46;;;;;;;2.58;2.20;;;25.20;66.70;;;;;;5030639;28;20025;-59
2022/06/25 12:21:20;;;;;;;2.30;2.10;;;25.30;67.00;;;;;;5026338;28;20022;-59
2022/06/25 12:23:58;;;;;;;4.85;2.88;;;25.30;66.90;;;;;;5044435;28;20021;-59
2022/06/25 12:26:28;;;;;;;2.17;2.03;;;25.30;66.90;;;;;;5033254;28;20026;-59
2022/06/25 12:29:04;;;;;;;2.30;2.10;;;25.30;66.80;;;;;;5034417;28;20522;-59
2022/06/25 12:31:29;;;;;;;1.98;1.88;;;25.40;67.20;;;;;;5026339;28;20058;-59
2022/06/25 12:33:55;;;;;;;2.28;2.08;;;25.40;67.10;;;;;;5023013;28;20481;-59
2022/06/25 12:36:24;;;;;;;2.20;2.00;;;25.40;67.20;;;;;;5033131;28;20511;-58
2022/06/25 12:38:50;;;;;;;2.67;2.40;;;25.40;67.10;;;;;;5027762;28;20021;-59
2022/06/25 12:41:15;;;;;;;2.55;2.15;;;25.50;67.00;;;;;;5030600;28;20100;-59
2022/06/25 12:43:45;;;;;;;2.53;2.22;;;25.50;67.00;;;;;;5032651;28;20563;-58
2022/06/25 12:46:11;;;;;;;3.30;2.72;;;25.50;67.00;;;;;;5032147;28;20029;-59
2022/06/25 12:48:37;;;;;;;2.25;1.80;;;25.40;66.90;;;;;;5027144;28;20061;-59
2022/06/25 12:51:14;;;;;;;2.20;1.95;;;25.40;67.30;;;;;;5030029;28;20040;-59
2022/06/25 12:53:42;;;;;;;2.40;2.20;;;25.30;66.80;;;;;;5032976;28;20055;-59
2022/06/25 12:56:08;;;;;;;4.35;2.08;;;25.10;66.80;;;;;;5030844;28;20034;-59
2022/06/25 12:58:35;;;;;;;2.08;1.75;;;24.90;67.00;;;;;;5031990;28;20537;-59
2022/06/25 13:01:16;;;;;;;2.70;1.92;;;24.70;67.30;;;;;;5030159;28;20029;-59
2022/06/25 13:03:42;;;;;;;2.33;2.13;;;24.50;67.60;;;;;;5015915;28;20432;-59